createdAt,value
2017-09-14T02:00:42.758Z,75.80
2017-09-14T02:03:16.259Z,74.68
2017-09-14T02:05:49.533Z,74.57
2017-09-14T02:08:23.283Z,73.80
2017-09-14T02:10:56.257Z,71.68
2017-09-14T02:13:29.346Z,71.61
2017-09-14T02:16:03.415Z,72.96
2017-09-14T02:18:37.031Z,72.29
2017-09-14T02:21:11.540Z,72.17
2017-09-14T02:23:44.865Z,72.55
2017-09-14T02:26:17.348Z,72.94
2017-09-14T02:28:50.704Z,74.33
2017-09-14T02:31:23.786Z,73.38
2017-09-14T02:33:57.753Z,72.89
2017-09-14T02:36:30.826Z,72.27
2017-09-14T02:39:06.530Z,73.44
2017-09-14T02:41:39.751Z,73.48
2017-09-14T02:44:12.440Z,72.69
2017-09-14T02:46:47.212Z,72.82
2017-09-14T02:49:22.327Z,72.10
2017-09-14T02:51:56.416Z,71.58
2017-09-14T02:54:29.481Z,72.34
2017-09-14T02:57:01.992Z,71.43
2017-09-14T02:59:34.608Z,70.72
2017-09-14T03:02:07.620Z,72.00
2017-09-14T03:04:38.975Z,71.46
2017-09-14T03:07:10.349Z,71.91
2017-09-14T03:09:46.311Z,71.82
2017-09-14T03:12:17.842Z,72.45
2017-09-14T03:14:51.249Z,74.05
2017-09-14T03:17:23.336Z,72.73
2017-09-14T03:19:55.818Z,72.33
2017-09-14T03:22:27.877Z,70.48
2017-09-14T03:25:00.069Z,71.08
2017-09-14T03:27:33.527Z,72.19
2017-09-14T03:30:08.383Z,71.98
2017-09-14T03:32:51.609Z,71.19
2017-09-14T03:35:23.157Z,70.52
2017-09-14T03:37:54.668Z,70.16
2017-09-14T03:40:33.938Z,70.48
2017-09-14T03:43:10.396Z,71.29
2017-09-14T03:45:44.307Z,72.14
2017-09-14T03:48:17.272Z,72.04
2017-09-14T03:50:51.024Z,71.62
2017-09-14T03:53:22.902Z,71.46
2017-09-14T03:55:56.365Z,71.04
2017-09-14T03:58:30.222Z,69.30
2017-09-14T04:01:02.975Z,70.44
2017-09-14T04:03:33.482Z,71.91
2017-09-14T04:06:05.873Z,71.82
2017-09-14T04:08:37.146Z,72.84
2017-09-14T04:11:11.895Z,73.23
2017-09-14T04:13:45.819Z,72.34
2017-09-14T04:16:20.919Z,71.45
2017-09-14T04:21:37.818Z,69.79
2017-09-14T04:24:11.940Z,70.72
2017-09-14T04:26:45.997Z,70.74
2017-09-14T04:29:20.637Z,71.01
2017-09-14T04:31:54.809Z,71.64
2017-09-14T04:34:29.486Z,70.32
2017-09-14T04:37:05.399Z,71.42
2017-09-14T04:39:36.949Z,71.03
2017-09-14T04:42:07.860Z,70.61
2017-09-14T04:44:40.083Z,70.59
2017-09-14T04:47:11.347Z,70.99
2017-09-14T04:50:11.248Z,71.01
2017-09-14T04:52:45.521Z,71.01
2017-09-14T04:55:19.384Z,71.71
2017-09-14T04:57:52.100Z,73.01
2017-09-14T05:00:27.082Z,72.56
2017-09-14T05:02:58.151Z,72.62
2017-09-14T05:05:32.428Z,71.42
2017-09-14T05:08:03.490Z,71.24
2017-09-14T05:10:34.134Z,71.56
2017-09-14T05:13:05.415Z,71.17
2017-09-14T05:15:36.029Z,70.18
2017-09-14T05:18:07.569Z,69.98
2017-09-14T05:20:39.055Z,70.68
2017-09-14T05:23:13.318Z,70.52
2017-09-14T05:25:46.658Z,69.34
2017-09-14T05:28:28.757Z,68.67
2017-09-14T05:31:00.005Z,69.77
2017-09-14T05:33:34.346Z,68.99
2017-09-14T05:36:12.525Z,68.53
2017-09-14T05:38:45.871Z,69.88
2017-09-14T05:41:18.613Z,70.58
2017-09-14T05:43:52.354Z,69.82
2017-09-14T05:46:24.415Z,69.20
2017-09-14T05:48:58.165Z,68.54
2017-09-14T05:51:28.879Z,68.19
2017-09-14T05:54:01.825Z,70.29
2017-09-14T05:56:37.621Z,70.28
2017-09-14T05:59:12.342Z,69.97
2017-09-14T06:01:47.741Z,69.85
2017-09-14T06:04:20.170Z,67.69
2017-09-14T06:06:51.645Z,68.95
2017-09-14T06:09:40.877Z,68.88
2017-09-14T06:12:13.062Z,68.01
2017-09-14T06:14:45.937Z,67.16
2017-09-14T06:17:18.872Z,66.62
2017-09-14T06:19:50.081Z,67.00
2017-09-14T06:22:22.525Z,68.52
2017-09-14T06:24:52.805Z,67.65
2017-09-14T06:27:22.978Z,67.40
2017-09-14T06:29:54.054Z,66.87
2017-09-14T06:32:26.698Z,68.03
2017-09-14T06:34:58.899Z,67.53
2017-09-14T06:37:34.740Z,67.83
2017-09-14T06:40:10.881Z,70.37
2017-09-14T06:42:43.871Z,73.47
2017-09-14T06:45:17.008Z,74.70
2017-09-14T06:47:49.796Z,75.10
2017-09-14T06:50:23.079Z,76.25
2017-09-14T06:52:55.007Z,76.44
2017-09-14T06:55:30.813Z,76.79
2017-09-14T06:58:04.175Z,76.84
2017-09-14T07:00:36.886Z,76.99
2017-09-14T07:03:18.074Z,76.53
2017-09-14T07:05:50.863Z,76.53
2017-09-14T07:08:22.307Z,76.84
2017-09-14T07:10:56.739Z,75.82
2017-09-14T07:13:32.798Z,75.55
2017-09-14T07:16:08.307Z,75.06
2017-09-14T07:18:43.345Z,75.79
2017-09-14T07:21:17.142Z,75.68
2017-09-14T07:23:50.680Z,75.03
2017-09-14T07:26:22.114Z,74.99
2017-09-14T07:31:34.947Z,73.63
2017-09-14T07:34:16.483Z,73.72
2017-09-14T07:36:50.484Z,73.65
2017-09-14T07:39:22.335Z,74.13
2017-09-14T07:41:55.237Z,73.44
2017-09-14T07:44:27.808Z,72.66
2017-09-14T07:47:00.744Z,72.65
2017-09-14T07:52:42.684Z,72.38
2017-09-14T07:55:15.341Z,71.97
2017-09-14T07:57:50.313Z,71.77
2017-09-14T08:00:27.553Z,71.41
2017-09-14T08:03:08.298Z,71.93
2017-09-14T08:05:55.449Z,71.43
2017-09-14T08:08:32.777Z,71.10
2017-09-14T08:11:10.780Z,71.31
2017-09-14T08:13:46.974Z,72.64
2017-09-14T08:16:40.865Z,72.89
2017-09-14T08:19:17.282Z,72.10
2017-09-14T08:21:51.972Z,72.18
2017-09-14T08:24:23.942Z,71.78
2017-09-14T08:27:06.152Z,70.29
2017-09-14T08:29:57.770Z,70.88
2017-09-14T08:32:30.676Z,70.07
2017-09-14T08:35:04.387Z,69.25
2017-09-14T08:37:56.302Z,69.50
2017-09-14T08:40:33.667Z,69.74
2017-09-14T08:43:14.506Z,70.38
2017-09-14T08:46:07.248Z,68.92
2017-09-14T08:48:54.254Z,69.06
2017-09-14T08:51:36.914Z,70.07
2017-09-14T08:54:17.048Z,69.32
2017-09-14T08:56:56.301Z,68.64
2017-09-14T08:59:37.312Z,67.80
2017-09-14T09:02:31.980Z,68.63
2017-09-14T09:05:12.194Z,69.83
2017-09-14T09:13:32.430Z,67.37
2017-09-14T09:16:11.820Z,68.06
2017-09-14T09:21:30.039Z,67.76
2017-09-14T09:24:11.862Z,67.72
2017-09-14T09:26:45.526Z,66.72
2017-09-14T09:29:27.894Z,66.23
2017-09-14T09:32:07.135Z,66.20
2017-09-14T09:34:44.311Z,66.07
2017-09-14T09:37:19.813Z,66.39
2017-09-14T09:39:55.433Z,66.05
2017-09-14T09:42:27.289Z,66.83
2017-09-14T09:45:02.092Z,67.12
2017-09-14T09:47:37.314Z,67.40
2017-09-14T09:50:28.964Z,66.92
2017-09-14T09:53:02.065Z,65.98
2017-09-14T09:55:35.335Z,65.38
2017-09-14T09:58:37.590Z,63.92
2017-09-14T10:01:10.114Z,65.03
2017-09-14T10:06:44.395Z,65.08
2017-09-14T10:09:18.632Z,64.44
2017-09-14T10:11:53.574Z,65.73
2017-09-14T10:14:36.779Z,65.99
2017-09-14T10:17:09.535Z,66.02
2017-09-14T10:19:44.482Z,65.39
2017-09-14T10:22:29.602Z,64.87
2017-09-14T10:25:10.731Z,65.87
2017-09-14T10:27:46.501Z,62.80
2017-09-14T10:30:24.986Z,63.37
2017-09-14T10:33:00.115Z,62.82
2017-09-14T10:35:32.363Z,64.72
2017-09-14T10:38:04.670Z,65.83
2017-09-14T10:40:39.125Z,66.99
2017-09-14T10:43:13.803Z,67.91
2017-09-14T10:45:47.304Z,68.75
2017-09-14T10:48:25.663Z,68.47
2017-09-14T10:50:57.727Z,68.44
2017-09-14T10:53:35.931Z,69.53
2017-09-14T10:56:21.032Z,69.66
2017-09-14T10:59:26.175Z,69.39
2017-09-14T11:02:00.173Z,69.80
2017-09-14T11:04:41.291Z,68.68
2017-09-14T11:07:16.207Z,67.34
2017-09-14T11:09:52.055Z,67.82
2017-09-14T11:12:25.277Z,67.60
2017-09-14T11:14:58.281Z,67.98
2017-09-14T11:17:37.307Z,68.79
2017-09-14T11:20:16.331Z,68.52
2017-09-14T11:22:49.671Z,68.85
2017-09-14T11:25:22.600Z,70.20
2017-09-14T11:27:59.398Z,70.96
2017-09-14T11:30:31.182Z,71.40
2017-09-14T11:33:04.036Z,70.92
2017-09-14T11:35:35.466Z,71.66
2017-09-14T11:38:09.341Z,71.95
2017-09-14T11:40:42.753Z,70.37
2017-09-14T11:43:16.411Z,69.99
2017-09-14T11:45:48.167Z,70.54
2017-09-14T11:48:20.494Z,68.82
2017-09-14T11:50:53.371Z,67.73
2017-09-14T11:53:31.154Z,68.32
2017-09-14T11:56:05.813Z,68.34
2017-09-14T11:58:45.458Z,70.87
2017-09-14T12:01:17.071Z,70.64
2017-09-14T12:03:49.732Z,68.17
2017-09-14T12:06:22.891Z,66.99
2017-09-14T12:09:01.397Z,65.94
2017-09-14T12:11:33.142Z,67.32
2017-09-14T12:14:05.106Z,65.91
2017-09-14T12:16:38.549Z,66.00
2017-09-14T12:19:26.478Z,66.28
2017-09-14T12:21:59.318Z,65.72
2017-09-14T12:24:32.449Z,67.35
2017-09-14T12:29:47.704Z,73.07
2017-09-14T12:32:18.266Z,73.74
2017-09-14T12:34:50.664Z,73.53
2017-09-14T12:37:28.412Z,73.74
2017-09-14T12:40:04.250Z,72.09
2017-09-14T12:42:37.644Z,71.73
2017-09-14T12:45:09.045Z,70.55
2017-09-14T12:47:40.916Z,69.67
2017-09-14T12:50:16.785Z,69.09
2017-09-14T12:52:48.726Z,70.11
2017-09-14T12:55:20.404Z,69.20
2017-09-14T12:57:52.394Z,70.15
2017-09-14T13:00:24.702Z,69.79
2017-09-14T13:02:57.350Z,69.25
2017-09-14T13:05:29.474Z,67.18
2017-09-14T13:08:01.405Z,67.26
2017-09-14T13:10:35.264Z,67.10
2017-09-14T13:13:09.288Z,68.43
2017-09-14T13:15:40.115Z,67.05
2017-09-14T13:18:10.659Z,66.95
2017-09-14T13:20:40.588Z,66.60
2017-09-14T13:23:10.985Z,67.00
2017-09-14T13:25:42.325Z,67.42
2017-09-14T13:28:13.892Z,64.57
2017-09-14T13:30:46.666Z,67.82
2017-09-14T13:33:19.410Z,67.08
2017-09-14T13:35:57.450Z,67.11
2017-09-14T13:38:31.939Z,68.33
2017-09-14T13:41:04.287Z,68.05
2017-09-14T13:43:36.435Z,67.53
2017-09-14T13:46:12.180Z,65.46
2017-09-14T13:48:46.116Z,66.69
2017-09-14T13:51:21.998Z,67.15
2017-09-14T13:54:01.169Z,67.63
2017-09-14T13:56:36.535Z,68.64
2017-09-14T13:59:08.382Z,69.41
2017-09-14T14:01:44.996Z,68.21
2017-09-14T14:04:15.567Z,66.67
2017-09-14T14:06:46.906Z,66.85
2017-09-14T14:09:18.698Z,67.11
2017-09-14T14:11:50.211Z,67.40
2017-09-14T14:14:22.349Z,65.31
2017-09-14T14:17:01.866Z,66.38
2017-09-14T14:19:34.068Z,64.97
2017-09-14T14:22:06.903Z,66.21
2017-09-14T14:24:39.824Z,65.40
2017-09-14T14:27:12.116Z,66.49
2017-09-14T14:29:45.631Z,65.84
2017-09-14T14:32:19.926Z,67.11
2017-09-14T14:34:58.441Z,66.74
2017-09-14T14:37:28.775Z,67.08
2017-09-14T14:39:59.260Z,65.89
2017-09-14T14:42:35.540Z,66.17
2017-09-14T14:45:09.514Z,66.73
2017-09-14T14:47:40.599Z,67.74
2017-09-14T14:50:15.066Z,68.67
2017-09-14T14:52:53.163Z,69.10
2017-09-14T14:55:27.200Z,70.01
2017-09-14T14:58:00.743Z,70.24
2017-09-14T15:00:34.394Z,70.43
2017-09-14T15:03:07.408Z,70.03
2017-09-14T15:05:39.921Z,69.18
2017-09-14T15:08:15.999Z,67.29
2017-09-14T15:10:50.124Z,67.25
2017-09-14T15:13:21.459Z,67.33
2017-09-14T15:15:54.486Z,68.03
2017-09-14T15:18:30.854Z,68.50
2017-09-14T15:21:03.608Z,67.67
2017-09-14T15:23:36.793Z,67.50
2017-09-14T15:26:10.082Z,67.37
2017-09-14T15:28:42.762Z,66.95
2017-09-14T15:31:15.780Z,66.61
2017-09-14T15:33:53.322Z,67.56
2017-09-14T15:36:26.292Z,66.57
2017-09-14T15:39:10.571Z,66.81
2017-09-14T15:41:48.103Z,66.54
2017-09-14T15:46:38.520Z,66.66
2017-09-14T15:49:17.367Z,66.24
2017-09-14T15:51:54.594Z,66.18
2017-09-14T15:54:26.988Z,66.96
2017-09-14T15:57:02.597Z,66.20
2017-09-14T15:59:35.721Z,64.67
2017-09-14T16:02:10.100Z,64.35
2017-09-14T16:04:45.327Z,64.94
2017-09-14T16:07:19.541Z,64.72
2017-09-14T16:09:52.697Z,66.08
2017-09-14T16:12:25.920Z,65.20
2017-09-14T16:15:00.035Z,66.66
2017-09-14T16:17:33.888Z,67.33
2017-09-14T16:20:06.475Z,68.21
2017-09-14T16:22:39.064Z,68.67
2017-09-14T16:25:16.661Z,67.75
2017-09-14T16:27:48.673Z,66.09
2017-09-14T16:30:20.548Z,66.68
2017-09-14T16:35:35.834Z,67.29
2017-09-14T16:38:07.071Z,67.33
2017-09-14T16:40:38.704Z,66.17
2017-09-14T16:43:10.445Z,66.18
2017-09-14T16:45:44.985Z,66.08
2017-09-14T16:48:17.956Z,67.31
2017-09-14T16:50:51.490Z,66.31
2017-09-14T16:53:23.491Z,68.23
2017-09-14T16:55:57.337Z,69.76
2017-09-14T16:58:36.310Z,70.22
2017-09-14T17:01:09.613Z,71.78
2017-09-14T17:03:43.099Z,71.82
2017-09-14T17:06:14.554Z,70.74
2017-09-14T17:08:50.448Z,71.06
2017-09-14T17:11:23.512Z,71.07
2017-09-14T17:13:55.428Z,71.70
2017-09-14T17:16:46.977Z,71.91
2017-09-14T17:19:19.192Z,71.50
2017-09-14T17:21:52.556Z,72.51
2017-09-14T17:24:24.030Z,74.46
2017-09-14T17:26:55.618Z,75.50
2017-09-14T17:29:27.776Z,76.41
2017-09-14T17:31:59.499Z,75.69
2017-09-14T17:34:31.216Z,74.76
2017-09-14T17:37:05.890Z,74.99
2017-09-14T17:39:37.571Z,75.18
2017-09-14T17:42:11.443Z,76.07
2017-09-14T17:44:44.453Z,76.85
2017-09-14T17:47:17.715Z,75.44
2017-09-14T17:49:48.716Z,74.08
2017-09-14T17:52:21.769Z,73.35
2017-09-14T17:55:10.029Z,72.10
2017-09-14T17:57:44.162Z,72.16
2017-09-14T18:00:15.644Z,72.54
2017-09-14T18:02:46.535Z,72.40
2017-09-14T18:05:17.763Z,72.95
2017-09-14T18:07:49.753Z,74.48
2017-09-14T18:10:21.920Z,74.61
2017-09-14T18:12:54.819Z,74.11
2017-09-14T18:15:26.269Z,74.48
2017-09-14T18:17:58.272Z,74.44
2017-09-14T18:20:32.335Z,74.96
2017-09-14T18:23:05.961Z,76.32
2017-09-14T18:25:38.080Z,77.18
2017-09-14T18:28:08.821Z,76.43
2017-09-14T18:30:42.071Z,75.75
2017-09-14T18:33:12.897Z,75.66
2017-09-14T18:35:43.921Z,75.62
2017-09-14T18:38:15.713Z,74.66
2017-09-14T18:40:47.557Z,76.92
2017-09-14T18:43:18.563Z,79.43
2017-09-14T18:45:50.744Z,78.04
2017-09-14T18:48:23.271Z,77.85
2017-09-14T18:50:57.238Z,78.01
2017-09-14T18:53:32.096Z,76.66
2017-09-14T18:56:04.949Z,78.06
2017-09-14T18:58:44.930Z,77.00
2017-09-14T19:01:17.650Z,76.69
2017-09-14T19:03:51.182Z,77.15
2017-09-14T19:06:21.466Z,77.37
2017-09-14T19:08:53.958Z,77.66
2017-09-14T19:11:25.684Z,76.51
2017-09-14T19:13:56.040Z,75.68
2017-09-14T19:16:28.773Z,74.65
2017-09-14T19:19:01.137Z,75.62
2017-09-14T19:21:34.072Z,76.49
2017-09-14T19:24:05.964Z,76.24
2017-09-14T19:26:37.327Z,74.37
2017-09-14T19:29:09.353Z,74.61
2017-09-14T19:31:42.070Z,76.00
2017-09-14T19:34:15.729Z,75.12
2017-09-14T19:36:50.699Z,74.35
2017-09-14T19:39:23.415Z,75.36
2017-09-14T19:41:59.117Z,74.99
2017-09-14T19:44:39.748Z,74.45
2017-09-14T19:47:14.682Z,74.54
2017-09-14T19:49:47.072Z,73.76
2017-09-14T19:52:19.777Z,75.15
2017-09-14T19:54:55.048Z,74.87
2017-09-14T19:57:28.565Z,73.68
2017-09-14T20:00:04.124Z,75.00
2017-09-14T20:02:41.679Z,74.01
2017-09-14T20:05:15.247Z,75.37
2017-09-14T20:07:48.179Z,74.98
2017-09-14T20:10:31.094Z,74.24
2017-09-14T20:13:08.111Z,73.76
2017-09-14T20:15:40.799Z,72.91
2017-09-14T20:18:14.443Z,75.00
2017-09-14T20:20:47.209Z,73.60
2017-09-14T20:23:19.866Z,72.21
2017-09-14T20:25:51.623Z,72.16
2017-09-14T20:28:26.521Z,71.75
2017-09-14T20:31:01.336Z,71.62
2017-09-14T20:33:34.135Z,72.08
2017-09-14T20:38:34.661Z,72.58
2017-09-14T20:41:09.233Z,71.34
2017-09-14T20:43:41.962Z,71.76
2017-09-14T20:46:19.192Z,72.01
2017-09-14T20:48:51.055Z,70.61
2017-09-14T20:51:23.761Z,70.86
2017-09-14T20:53:56.919Z,70.72
2017-09-14T20:56:28.353Z,70.57
2017-09-14T20:59:01.288Z,71.46
2017-09-14T21:01:33.766Z,70.87
2017-09-14T21:04:05.387Z,72.98
2017-09-14T21:06:37.767Z,71.67
2017-09-14T21:09:11.728Z,71.81
2017-09-14T21:11:43.311Z,70.87
2017-09-14T21:14:14.847Z,71.77
2017-09-14T21:16:46.823Z,73.68
2017-09-14T21:19:19.392Z,71.92
2017-09-14T21:21:51.470Z,72.59
2017-09-14T21:24:24.706Z,72.12
2017-09-14T21:26:57.323Z,72.01
2017-09-14T21:29:33.445Z,70.41
2017-09-14T21:32:06.885Z,71.64
2017-09-14T21:34:43.300Z,73.51
2017-09-14T21:37:14.501Z,72.44
2017-09-14T21:39:46.038Z,71.57
2017-09-14T21:42:18.131Z,73.63
2017-09-14T21:44:50.654Z,74.05
2017-09-14T21:47:22.817Z,74.40
2017-09-14T21:49:54.384Z,75.17
2017-09-14T21:52:26.286Z,77.88
2017-09-14T21:54:59.233Z,76.04
2017-09-14T21:57:31.484Z,73.64
2017-09-14T22:00:06.167Z,74.09
2017-09-14T22:02:44.944Z,72.75
2017-09-14T22:05:23.309Z,76.25
2017-09-14T22:07:56.137Z,76.53
2017-09-14T22:10:28.378Z,76.71
2017-09-14T22:13:00.406Z,75.77
2017-09-14T22:15:32.933Z,74.85
2017-09-14T22:18:04.331Z,77.48
2017-09-14T22:20:35.575Z,77.13
2017-09-14T22:23:08.295Z,77.10
2017-09-14T22:25:39.484Z,76.54
2017-09-14T22:28:10.857Z,77.53
2017-09-14T22:30:43.091Z,76.94
2017-09-14T22:33:14.850Z,75.38
2017-09-14T22:35:47.231Z,75.14
2017-09-14T22:38:19.249Z,76.34
2017-09-14T22:40:50.531Z,75.55
2017-09-14T22:43:22.565Z,76.41
2017-09-14T22:45:58.035Z,78.70
2017-09-14T22:48:29.330Z,77.87
2017-09-14T22:51:01.750Z,77.33
2017-09-14T22:53:33.153Z,79.94
2017-09-14T22:56:04.945Z,77.03
2017-09-14T22:58:36.996Z,76.63
2017-09-14T23:01:08.152Z,76.90
2017-09-14T23:03:43.599Z,75.96
2017-09-14T23:06:17.486Z,76.56
2017-09-14T23:08:52.182Z,75.54
2017-09-14T23:11:24.666Z,78.61
2017-09-14T23:14:02.936Z,77.95
2017-09-14T23:16:36.974Z,76.54
2017-09-14T23:19:11.024Z,76.69
2017-09-14T23:21:48.347Z,77.88
2017-09-14T23:24:26.381Z,77.77
2017-09-14T23:26:59.662Z,75.43
2017-09-14T23:29:34.853Z,75.49
2017-09-14T23:32:10.927Z,74.59
2017-09-14T23:34:42.760Z,77.22
2017-09-14T23:37:14.625Z,75.90
2017-09-14T23:39:46.419Z,76.18
2017-09-14T23:42:17.943Z,75.08
2017-09-14T23:44:49.669Z,76.09
2017-09-14T23:47:24.566Z,76.01
2017-09-14T23:49:57.897Z,75.37
2017-09-14T23:52:31.754Z,75.21
2017-09-14T23:55:10.985Z,75.72
2017-09-14T23:57:44.550Z,76.32
